sensor_id;sensor_type;location;lat;lon;timestamp;pressure;altitude;pressure_sealevel;temperature;humidity
28344;BME280;15597;50.914;6.638;2023-03-23T00:02:27;99719.16;;;15.45;56.77
28344;BME280;15597;50.914;6.638;2023-03-23T00:04:53;99726.88;;;15.48;56.49
28344;BME280;15597;50.914;6.638;2023-03-23T00:07:20;99715.41;;;15.49;56.69
28344;BME280;15597;50.914;6.638;2023-03-23T00:09:48;99711.84;;;15.50;56.63
28344;BME280;15597;50.914;6.638;2023-03-23T00:12:22;99720.50;;;15.52;56.59
28344;BME280;15597;50.914;6.638;2023-03-23T00:14:57;99717.09;;;15.50;56.44
28344;BME280;15597;50.914;6.638;2023-03-23T00:17:22;99714.28;;;15.53;56.58
28344;BME280;15597;50.914;6.638;2023-03-23T00:19:49;99715.22;;;15.52;56.71
28344;BME280;15597;50.914;6.638;2023-03-23T00:22:16;99718.81;;;15.51;56.66
28344;BME280;15597;50.914;6.638;2023-03-23T00:24:47;99710.13;;;15.49;56.80
28344;BME280;15597;50.914;6.638;2023-03-23T00:27:13;99713.69;;;15.48;56.53
28344;BME280;15597;50.914;6.638;2023-03-23T00:29:40;99703.34;;;15.45;56.64
28344;BME280;15597;50.914;6.638;2023-03-23T00:32:08;99697.88;;;15.48;56.50
28344;BME280;15597;50.914;6.638;2023-03-23T00:34:41;99712.00;;;15.47;56.83
28344;BME280;15597;50.914;6.638;2023-03-23T00:37:09;99712.00;;;15.47;56.55
28344;BME280;15597;50.914;6.638;2023-03-23T00:39:35;99705.91;;;15.46;56.64
28344;BME280;15597;50.914;6.638;2023-03-23T00:42:02;99707.50;;;15.49;56.84
28344;BME280;15597;50.914;6.638;2023-03-23T00:44:30;99698.81;;;15.47;56.81
28344;BME280;15597;50.914;6.638;2023-03-23T00:46:56;99693.38;;;15.34;56.87
28344;BME280;15597;50.914;6.638;2023-03-23T00:49:24;99686.16;;;15.38;57.14
28344;BME280;15597;50.914;6.638;2023-03-23T00:52:00;99694.84;;;15.40;56.81
28344;BME280;15597;50.914;6.638;2023-03-23T00:54:27;99697.41;;;15.41;56.67
28344;BME280;15597;50.914;6.638;2023-03-23T00:56:53;99689.38;;;15.43;56.75
28344;BME280;15597;50.914;6.638;2023-03-23T00:59:19;99698.06;;;15.45;56.89
28344;BME280;15597;50.914;6.638;2023-03-23T01:01:46;99693.47;;;15.48;56.61
28344;BME280;15597;50.914;6.638;2023-03-23T01:04:13;99691.69;;;15.49;56.70
28344;BME280;15597;50.914;6.638;2023-03-23T01:06:42;99684.63;;;15.50;56.60
28344;BME280;15597;50.914;6.638;2023-03-23T01:09:11;99678.66;;;15.46;56.83
28344;BME280;15597;50.914;6.638;2023-03-23T01:11:41;99686.69;;;15.44;56.96
28344;BME280;15597;50.914;6.638;2023-03-23T01:14:07;99691.94;;;15.44;56.78
28344;BME280;15597;50.914;6.638;2023-03-23T01:16:34;99693.72;;;15.44;56.82
28344;BME280;15597;50.914;6.638;2023-03-23T01:18:59;99696.53;;;15.41;56.83
28344;BME280;15597;50.914;6.638;2023-03-23T01:21:25;99680.72;;;15.41;56.83
28344;BME280;15597;50.914;6.638;2023-03-23T01:23:51;99686.00;;;15.41;57.05
28344;BME280;15597;50.914;6.638;2023-03-23T01:26:25;99688.78;;;15.38;57.14
28344;BME280;15597;50.914;6.638;2023-03-23T01:28:51;99694.66;;;15.43;57.04
28344;BME280;15597;50.914;6.638;2023-03-23T01:31:26;99698.22;;;15.42;57.03
28344;BME280;15597;50.914;6.638;2023-03-23T01:33:51;99685.56;;;15.32;57.32
28344;BME280;15597;50.914;6.638;2023-03-23T01:36:21;99677.56;;;15.34;57.56
28344;BME280;15597;50.914;6.638;2023-03-23T01:38:49;99673.91;;;15.37;57.44
28344;BME280;15597;50.914;6.638;2023-03-23T01:41:16;99688.72;;;15.39;57.63
28344;BME280;15597;50.914;6.638;2023-03-23T01:46:21;99684.63;;;15.33;57.69
28344;BME280;15597;50.914;6.638;2023-03-23T01:48:49;99654.88;;;15.31;57.65
28344;BME280;15597;50.914;6.638;2023-03-23T01:51:16;99651.47;;;15.29;58.03
28344;BME280;15597;50.914;6.638;2023-03-23T01:53:48;99665.75;;;15.25;58.24
28344;BME280;15597;50.914;6.638;2023-03-23T01:56:20;99662.53;;;15.20;58.17
28344;BME280;15597;50.914;6.638;2023-03-23T01:58:51;99672.16;;;15.21;58.33
28344;BME280;15597;50.914;6.638;2023-03-23T02:01:17;99657.16;;;15.22;58.19
28344;BME280;15597;50.914;6.638;2023-03-23T02:03:45;99638.81;;;15.20;58.33
28344;BME280;15597;50.914;6.638;2023-03-23T02:06:11;99629.91;;;15.07;58.43
28344;BME280;15597;50.914;6.638;2023-03-23T02:08:50;99636.69;;;15.11;58.73
28344;BME280;15597;50.914;6.638;2023-03-23T02:11:19;99623.34;;;15.14;58.28
28344;BME280;15597;50.914;6.638;2023-03-23T02:13:46;99608.31;;;15.16;58.51
28344;BME280;15597;50.914;6.638;2023-03-23T02:27:06;99583.06;;;15.12;58.30
28344;BME280;15597;50.914;6.638;2023-03-23T02:32:38;99580.50;;;15.10;58.32
28344;BME280;15597;50.914;6.638;2023-03-23T02:35:18;99610.34;;;15.11;58.44
28344;BME280;15597;50.914;6.638;2023-03-23T02:37:58;99587.31;;;15.14;58.19
28344;BME280;15597;50.914;6.638;2023-03-23T02:40:28;99597.94;;;15.13;58.22
28344;BME280;15597;50.914;6.638;2023-03-23T02:42:57;99603.22;;;15.13;58.20
28344;BME280;15597;50.914;6.638;2023-03-23T02:45:27;99612.06;;;15.12;58.13
28344;BME280;15597;50.914;6.638;2023-03-23T02:47:54;99605.09;;;15.11;58.47
28344;BME280;15597;50.914;6.638;2023-03-23T02:50:26;99612.22;;;15.09;58.28
28344;BME280;15597;50.914;6.638;2023-03-23T02:52:54;99620.03;;;15.10;58.54
28344;BME280;15597;50.914;6.638;2023-03-23T02:55:21;99620.97;;;15.09;58.54
28344;BME280;15597;50.914;6.638;2023-03-23T02:57:52;99608.66;;;15.10;58.24
28344;BME280;15597;50.914;6.638;2023-03-23T03:00:18;99604.31;;;15.09;58.53
28344;BME280;15597;50.914;6.638;2023-03-23T03:02:46;99606.03;;;15.10;58.59
28344;BME280;15597;50.914;6.638;2023-03-23T03:05:43;99609.00;;;15.03;58.61
28344;BME280;15597;50.914;6.638;2023-03-23T03:08:24;99599.66;;;14.98;58.54
28344;BME280;15597;50.914;6.638;2023-03-23T03:10:58;99599.56;;;14.99;58.86
28344;BME280;15597;50.914;6.638;2023-03-23T03:13:44;99584.88;;;14.95;58.83
28344;BME280;15597;50.914;6.638;2023-03-23T03:16:14;99593.53;;;14.97;58.87
28344;BME280;15597;50.914;6.638;2023-03-23T03:18:56;99609.34;;;14.97;58.84
28344;BME280;15597;50.914;6.638;2023-03-23T03:21:27;99611.22;;;14.95;58.85
28344;BME280;15597;50.914;6.638;2023-03-23T03:23:58;99612.91;;;14.96;58.76
28344;BME280;15597;50.914;6.638;2023-03-23T03:26:28;99614.63;;;14.97;58.72
28344;BME280;15597;50.914;6.638;2023-03-23T03:28:58;99619.72;;;15.00;58.98
28344;BME280;15597;50.914;6.638;2023-03-23T03:31:29;99619.72;;;15.00;58.67
28344;BME280;15597;50.914;6.638;2023-03-23T03:33:56;99617.91;;;15.01;58.75
28344;BME280;15597;50.914;6.638;2023-03-23T03:36:26;99617.84;;;15.02;58.42
28344;BME280;15597;50.914;6.638;2023-03-23T03:38:53;99622.19;;;15.03;58.36
28344;BME280;15597;50.914;6.638;2023-03-23T03:41:20;99624.81;;;15.03;58.87
28344;BME280;15597;50.914;6.638;2023-03-23T03:43:46;99630.91;;;15.04;58.55
28344;BME280;15597;50.914;6.638;2023-03-23T03:46:12;99619.72;;;15.00;58.51
28344;BME280;15597;50.914;6.638;2023-03-23T03:48:38;99620.53;;;15.01;58.51
28344;BME280;15597;50.914;6.638;2023-03-23T03:51:04;99597.78;;;15.00;58.75
28344;BME280;15597;50.914;6.638;2023-03-23T03:53:32;99596.94;;;14.99;58.59
28344;BME280;15597;50.914;6.638;2023-03-23T03:55:58;99603.91;;;15.00;58.48
28344;BME280;15597;50.914;6.638;2023-03-23T03:58:27;99603.03;;;15.00;58.81
28344;BME280;15597;50.914;6.638;2023-03-23T04:01:17;99608.41;;;14.98;58.71
28344;BME280;15597;50.914;6.638;2023-03-23T04:03:44;99588.09;;;15.00;58.80
28344;BME280;15597;50.914;6.638;2023-03-23T04:06:15;99608.13;;;15.03;58.76
28344;BME280;15597;50.914;6.638;2023-03-23T04:08:41;99599.28;;;15.04;58.53
28344;BME280;15597;50.914;6.638;2023-03-23T04:11:09;99601.88;;;15.06;58.54
28344;BME280;15597;50.914;6.638;2023-03-23T04:13:35;99606.09;;;15.08;58.38
28344;BME280;15597;50.914;6.638;2023-03-23T04:16:13;99606.09;;;15.08;58.33
28344;BME280;15597;50.914;6.638;2023-03-23T04:18:39;99609.59;;;15.09;58.37
28344;BME280;15597;50.914;6.638;2023-03-23T04:21:05;99615.63;;;15.11;58.49
28344;BME280;15597;50.914;6.638;2023-03-23T04:23:34;99622.41;;;15.15;58.17
28344;BME280;15597;50.914;6.638;2023-03-23T04:26:02;99618.84;;;15.16;58.35
28344;BME280;15597;50.914;6.638;2023-03-23T04:28:34;99617.91;;;15.17;58.34
28344;BME280;15597;50.914;6.638;2023-03-23T04:31:19;99623.25;;;15.15;58.19
28344;BME280;15597;50.914;6.638;2023-03-23T04:33:51;99629.38;;;15.16;58.15
28344;BME280;15597;50.914;6.638;2023-03-23T04:36:23;99636.53;;;15.14;58.01
28344;BME280;15597;50.914;6.638;2023-03-23T04:39:00;99644.44;;;15.14;58.16
28344;BME280;15597;50.914;6.638;2023-03-23T04:41:29;99645.38;;;15.13;57.96
28344;BME280;15597;50.914;6.638;2023-03-23T04:44:15;99623.53;;;15.11;58.22
28344;BME280;15597;50.914;6.638;2023-03-23T04:46:47;99635.94;;;15.09;58.05
28344;BME280;15597;50.914;6.638;2023-03-23T04:49:16;99639.56;;;15.06;58.34
28344;BME280;15597;50.914;6.638;2023-03-23T04:51:47;99639.69;;;15.04;58.26
28344;BME280;15597;50.914;6.638;2023-03-23T04:54:40;99635.34;;;15.03;58.26
28344;BME280;15597;50.914;6.638;2023-03-23T04:57:05;99648.41;;;15.05;58.10
28344;BME280;15597;50.914;6.638;2023-03-23T04:59:34;99653.69;;;15.05;58.19
28344;BME280;15597;50.914;6.638;2023-03-23T05:02:13;99644.94;;;15.04;58.14
28344;BME280;15597;50.914;6.638;2023-03-23T05:04:42;99651.16;;;15.03;58.17
28344;BME280;15597;50.914;6.638;2023-03-23T05:07:12;99644.19;;;15.02;58.24
28344;BME280;15597;50.914;6.638;2023-03-23T05:09:47;99636.44;;;14.99;58.20
28344;BME280;15597;50.914;6.638;2023-03-23T05:12:13;99649.63;;;14.99;58.34
28344;BME280;15597;50.914;6.638;2023-03-23T05:14:48;99653.19;;;14.98;58.24
28344;BME280;15597;50.914;6.638;2023-03-23T05:17:17;99661.84;;;15.00;58.08
28344;BME280;15597;50.914;6.638;2023-03-23T05:19:44;99647.00;;;14.99;58.16
28344;BME280;15597;50.914;6.638;2023-03-23T05:22:29;99648.00;;;14.97;58.28
28344;BME280;15597;50.914;6.638;2023-03-23T05:24:58;99651.50;;;14.97;58.24
28344;BME280;15597;50.914;6.638;2023-03-23T05:27:25;99654.97;;;14.98;58.18
28344;BME280;15597;50.914;6.638;2023-03-23T05:29:55;99647.06;;;14.98;57.97
28344;BME280;15597;50.914;6.638;2023-03-23T05:32:21;99655.81;;;14.98;57.75
28344;BME280;15597;50.914;6.638;2023-03-23T05:35:00;99654.97;;;14.98;57.81
28344;BME280;15597;50.914;6.638;2023-03-23T05:37:27;99658.47;;;14.98;57.96
28344;BME280;15597;50.914;6.638;2023-03-23T05:40:07;99656.75;;;14.97;58.21
28344;BME280;15597;50.914;6.638;2023-03-23T05:42:33;99660.31;;;14.96;58.09
28344;BME280;15597;50.914;6.638;2023-03-23T05:45:09;99649.97;;;14.93;57.95
28344;BME280;15597;50.914;6.638;2023-03-23T05:47:41;99637.91;;;14.89;58.05
28344;BME280;15597;50.914;6.638;2023-03-23T05:50:15;99650.19;;;14.88;57.78
28344;BME280;15597;50.914;6.638;2023-03-23T05:52:41;99655.56;;;14.87;57.78
28344;BME280;15597;50.914;6.638;2023-03-23T05:55:10;99653.88;;;14.86;57.76
28344;BME280;15597;50.914;6.638;2023-03-23T05:57:38;99662.78;;;14.83;57.96
28344;BME280;15597;50.914;6.638;2023-03-23T06:00:09;99667.09;;;14.84;58.08
28344;BME280;15597;50.914;6.638;2023-03-23T06:02:40;99674.94;;;14.86;57.92
28344;BME280;15597;50.914;6.638;2023-03-23T06:05:12;99673.22;;;14.85;57.68
28344;BME280;15597;50.914;6.638;2023-03-23T06:07:40;99675.00;;;14.84;57.85
28344;BME280;15597;50.914;6.638;2023-03-23T06:10:06;99673.22;;;14.85;57.92
28344;BME280;15597;50.914;6.638;2023-03-23T06:12:33;99674.94;;;14.86;57.77
28344;BME280;15597;50.914;6.638;2023-03-23T06:15:11;99674.94;;;14.86;57.94
28344;BME280;15597;50.914;6.638;2023-03-23T06:17:58;99689.16;;;14.82;57.66
28344;BME280;15597;50.914;6.638;2023-03-23T06:20:29;99693.50;;;14.83;57.77
28344;BME280;15597;50.914;6.638;2023-03-23T06:22:56;99685.47;;;14.86;57.87
28344;BME280;15597;50.914;6.638;2023-03-23T06:25:32;99673.13;;;14.86;57.96
28344;BME280;15597;50.914;6.638;2023-03-23T06:27:58;99689.72;;;14.88;57.85
28344;BME280;15597;50.914;6.638;2023-03-23T06:30:24;99681.97;;;14.85;57.71
28344;BME280;15597;50.914;6.638;2023-03-23T06:32:53;99695.06;;;14.87;57.54
28344;BME280;15597;50.914;6.638;2023-03-23T06:35:34;99690.75;;;14.86;57.66
28344;BME280;15597;50.914;6.638;2023-03-23T06:38:12;99696.00;;;14.86;57.58
28344;BME280;15597;50.914;6.638;2023-03-23T06:40:54;99702.97;;;14.87;57.80
28344;BME280;15597;50.914;6.638;2023-03-23T06:43:21;99698.31;;;14.92;57.75
28344;BME280;15597;50.914;6.638;2023-03-23T06:45:58;99711.47;;;14.92;57.62
28344;BME280;15597;50.914;6.638;2023-03-23T06:48:40;99714.88;;;14.94;57.64
28344;BME280;15597;50.914;6.638;2023-03-23T06:51:08;99708.53;;;14.81;58.10
28344;BME280;15597;50.914;6.638;2023-03-23T06:53:36;99699.69;;;14.82;58.01
28344;BME280;15597;50.914;6.638;2023-03-23T06:56:04;99700.41;;;14.85;57.65
28344;BME280;15597;50.914;6.638;2023-03-23T06:58:30;99701.09;;;14.89;57.58
28344;BME280;15597;50.914;6.638;2023-03-23T07:00:57;99701.09;;;14.89;57.56
28344;BME280;15597;50.914;6.638;2023-03-23T07:03:30;99702.81;;;14.90;57.61
28344;BME280;15597;50.914;6.638;2023-03-23T07:05:58;99712.41;;;14.91;57.58
28344;BME280;15597;50.914;6.638;2023-03-23T07:08:26;99723.72;;;14.93;57.59
28344;BME280;15597;50.914;6.638;2023-03-23T07:10:54;99714.00;;;14.94;57.69
28344;BME280;15597;50.914;6.638;2023-03-23T07:13:25;99706.88;;;14.96;57.60
28344;BME280;15597;50.914;6.638;2023-03-23T07:15:55;99713.00;;;14.96;57.29
28344;BME280;15597;50.914;6.638;2023-03-23T07:18:21;99713.69;;;15.00;57.22
28344;BME280;15597;50.914;6.638;2023-03-23T07:20:50;99714.53;;;15.00;57.21
28344;BME280;15597;50.914;6.638;2023-03-23T07:23:17;99713.50;;;14.87;57.81
28344;BME280;15597;50.914;6.638;2023-03-23T07:26:03;99698.16;;;14.78;57.77
28344;BME280;15597;50.914;6.638;2023-03-23T07:28:35;99697.00;;;14.83;57.64
28344;BME280;15597;50.914;6.638;2023-03-23T07:31:11;99706.38;;;14.89;57.60
28344;BME280;15597;50.914;6.638;2023-03-23T07:33:37;99706.22;;;14.92;57.36
28344;BME280;15597;50.914;6.638;2023-03-23T07:36:04;99709.59;;;14.94;57.55
28344;BME280;15597;50.914;6.638;2023-03-23T07:38:32;99705.88;;;14.98;57.27
28344;BME280;15597;50.914;6.638;2023-03-23T07:40:58;99699.69;;;14.99;56.92
28344;BME280;15597;50.914;6.638;2023-03-23T07:43:24;99712.84;;;14.99;57.23
28344;BME280;15597;50.914;6.638;2023-03-23T07:46:02;99712.84;;;14.99;57.10
28344;BME280;15597;50.914;6.638;2023-03-23T07:48:54;99713.63;;;15.01;57.26
28344;BME280;15597;50.914;6.638;2023-03-23T07:51:25;99707.41;;;15.02;57.12
28344;BME280;15597;50.914;6.638;2023-03-23T07:53:50;99702.91;;;15.04;56.90
28344;BME280;15597;50.914;6.638;2023-03-23T07:56:37;99711.75;;;15.03;56.96
28344;BME280;15597;50.914;6.638;2023-03-23T07:59:11;99707.25;;;15.06;57.09
28344;BME280;15597;50.914;6.638;2023-03-23T08:01:39;99708.78;;;15.10;56.87
28344;BME280;15597;50.914;6.638;2023-03-23T08:04:23;99711.41;;;15.10;56.70
28344;BME280;15597;50.914;6.638;2023-03-23T08:07:08;99712.19;;;15.12;57.08
28344;BME280;15597;50.914;6.638;2023-03-23T08:10:02;99708.59;;;15.13;56.65
28344;BME280;15597;50.914;6.638;2023-03-23T08:12:31;99712.84;;;15.15;56.49
28344;BME280;15597;50.914;6.638;2023-03-23T08:15:15;99712.94;;;15.14;56.80
28344;BME280;15597;50.914;6.638;2023-03-23T08:17:51;99719.03;;;15.14;56.64
28344;BME280;15597;50.914;6.638;2023-03-23T08:20:37;99711.84;;;15.18;56.66
28344;BME280;15597;50.914;6.638;2023-03-23T08:23:03;99721.34;;;15.21;56.87
28344;BME280;15597;50.914;6.638;2023-03-23T08:25:35;99729.19;;;15.22;56.66
28344;BME280;15597;50.914;6.638;2023-03-23T08:28:20;99719.47;;;15.23;56.51
28344;BME280;15597;50.914;6.638;2023-03-23T08:31:09;99731.06;;;15.20;56.75
28344;BME280;15597;50.914;6.638;2023-03-23T08:33:49;99726.44;;;15.24;56.51
28344;BME280;15597;50.914;6.638;2023-03-23T08:36:22;99726.38;;;15.25;56.42
28344;BME280;15597;50.914;6.638;2023-03-23T08:39:21;99728.16;;;15.25;56.45
28344;BME280;15597;50.914;6.638;2023-03-23T08:42:11;99731.66;;;15.25;56.58
28344;BME280;15597;50.914;6.638;2023-03-23T08:44:50;99734.88;;;15.30;56.60
28344;BME280;15597;50.914;6.638;2023-03-23T08:47:31;99739.38;;;15.28;56.39
28344;BME280;15597;50.914;6.638;2023-03-23T08:50:14;99750.59;;;15.16;56.75
28344;BME280;15597;50.914;6.638;2023-03-23T08:52:53;99762.84;;;15.17;56.76
28344;BME280;15597;50.914;6.638;2023-03-23T08:55:31;99759.09;;;15.21;56.83
28344;BME280;15597;50.914;6.638;2023-03-23T08:58:20;99760.53;;;15.27;56.64
28344;BME280;15597;50.914;6.638;2023-03-23T09:01:05;99760.47;;;15.28;56.67
28344;BME280;15597;50.914;6.638;2023-03-23T09:03:44;99761.06;;;15.33;56.59
28344;BME280;15597;50.914;6.638;2023-03-23T09:06:31;99760.97;;;15.35;56.60
28344;BME280;15597;50.914;6.638;2023-03-23T09:08:58;99764.22;;;15.40;56.29
28344;BME280;15597;50.914;6.638;2023-03-23T09:11:26;99761.44;;;15.43;56.43
28344;BME280;15597;50.914;6.638;2023-03-23T09:13:51;99769.84;;;15.50;56.39
28344;BME280;15597;50.914;6.638;2023-03-23T09:16:17;99767.13;;;15.52;56.08
28344;BME280;15597;50.914;6.638;2023-03-23T09:18:43;99762.69;;;15.52;56.05
28344;BME280;15597;50.914;6.638;2023-03-23T09:21:09;99759.97;;;15.54;56.10
28344;BME280;15597;50.914;6.638;2023-03-23T09:23:35;99762.50;;;15.55;55.92
28344;BME280;15597;50.914;6.638;2023-03-23T09:26:02;99756.47;;;15.53;55.54
28344;BME280;15597;50.914;6.638;2023-03-23T09:28:28;99757.41;;;15.52;55.62
28344;BME280;15597;50.914;6.638;2023-03-23T09:30:55;99770.59;;;15.52;55.47
28344;BME280;15597;50.914;6.638;2023-03-23T09:33:25;99776.63;;;15.54;55.38
28344;BME280;15597;50.914;6.638;2023-03-23T09:35:51;99788.72;;;15.58;55.18
28344;BME280;15597;50.914;6.638;2023-03-23T09:38:17;99786.66;;;15.63;54.90
28344;BME280;15597;50.914;6.638;2023-03-23T09:40:46;99782.34;;;15.62;55.08
28344;BME280;15597;50.914;6.638;2023-03-23T09:48:53;99780.28;;;15.68;55.30
28344;BME280;15597;50.914;6.638;2023-03-23T09:53:54;99779.19;;;15.72;55.13
28344;BME280;15597;50.914;6.638;2023-03-23T09:56:23;99763.19;;;15.75;55.09
28344;BME280;15597;50.914;6.638;2023-03-23T09:58:59;99768.56;;;15.73;55.25
28344;BME280;15597;50.914;6.638;2023-03-23T10:01:45;99765.56;;;15.63;55.65
28344;BME280;15597;50.914;6.638;2023-03-23T10:04:19;99768.97;;;15.66;55.75
28344;BME280;15597;50.914;6.638;2023-03-23T10:06:49;99773.91;;;15.72;55.59
28344;BME280;15597;50.914;6.638;2023-03-23T10:09:17;99771.03;;;15.76;55.53
28344;BME280;15597;50.914;6.638;2023-03-23T10:19:42;99774.66;;;15.74;55.79
28344;BME280;15597;50.914;6.638;2023-03-23T10:22:11;99775.44;;;15.76;55.66
28344;BME280;15597;50.914;6.638;2023-03-23T10:24:49;99772.03;;;15.74;56.23
28344;BME280;15597;50.914;6.638;2023-03-23T10:27:22;99774.50;;;15.77;55.81
28344;BME280;15597;50.914;6.638;2023-03-23T10:29:54;99769.22;;;15.77;55.78
28344;BME280;15597;50.914;6.638;2023-03-23T10:35:18;99776.78;;;15.83;55.88
28344;BME280;15597;50.914;6.638;2023-03-23T10:37:49;99779.25;;;15.86;55.95
28344;BME280;15597;50.914;6.638;2023-03-23T10:40:23;99783.47;;;15.90;55.90
28344;BME280;15597;50.914;6.638;2023-03-23T10:42:51;99776.13;;;15.80;56.21
28344;BME280;15597;50.914;6.638;2023-03-23T10:45:23;99787.13;;;15.88;56.11
28344;BME280;15597;50.914;6.638;2023-03-23T10:48:12;99781.59;;;15.93;56.01
28344;BME280;15597;50.914;6.638;2023-03-23T10:50:39;99782.09;;;15.99;55.85
28344;BME280;15597;50.914;6.638;2023-03-23T10:53:17;99787.19;;;16.02;55.99
28344;BME280;15597;50.914;6.638;2023-03-23T10:55:44;99776.28;;;16.09;55.97
28344;BME280;15597;50.914;6.638;2023-03-23T10:58:28;99775.09;;;16.14;55.86
28344;BME280;15597;50.914;6.638;2023-03-23T11:00:55;99781.72;;;16.21;55.82
28344;BME280;15597;50.914;6.638;2023-03-23T11:03:34;99784.06;;;16.26;56.07
28344;BME280;15597;50.914;6.638;2023-03-23T11:06:05;99776.28;;;16.39;55.73
28344;BME280;15597;50.914;6.638;2023-03-23T11:08:35;99791.00;;;16.43;55.47
28344;BME280;15597;50.914;6.638;2023-03-23T11:13:40;99785.56;;;16.46;55.51
28344;BME280;15597;50.914;6.638;2023-03-23T11:16:08;99783.47;;;16.52;55.15
28344;BME280;15597;50.914;6.638;2023-03-23T11:18:39;99793.88;;;16.55;55.22
28344;BME280;15597;50.914;6.638;2023-03-23T11:21:07;99777.66;;;16.61;55.10
28344;BME280;15597;50.914;6.638;2023-03-23T11:23:39;99767.78;;;16.64;55.08
28344;BME280;15597;50.914;6.638;2023-03-23T11:29:13;99771.53;;;16.60;54.96
28344;BME280;15597;50.914;6.638;2023-03-23T11:34:15;99775.94;;;16.60;54.92
28344;BME280;15597;50.914;6.638;2023-03-23T11:37:09;99787.47;;;16.59;54.63
28344;BME280;15597;50.914;6.638;2023-03-23T11:39:54;99798.97;;;16.58;54.78
28344;BME280;15597;50.914;6.638;2023-03-23T11:42:35;99798.03;;;16.59;55.36
28344;BME280;15597;50.914;6.638;2023-03-23T11:45:32;99792.47;;;16.63;55.14
28344;BME280;15597;50.914;6.638;2023-03-23T11:51:12;99781.19;;;16.76;55.33
28344;BME280;15597;50.914;6.638;2023-03-23T11:54:11;99772.94;;;16.80;55.68
28344;BME280;15597;50.914;6.638;2023-03-23T11:56:43;99782.59;;;16.96;55.35
28344;BME280;15597;50.914;6.638;2023-03-23T11:59:16;99771.59;;;17.04;55.12
28344;BME280;15597;50.914;6.638;2023-03-23T12:02:09;99780.19;;;17.07;54.89
28344;BME280;15597;50.914;6.638;2023-03-23T12:05:26;99774.53;;;17.14;54.99
28344;BME280;15597;50.914;6.638;2023-03-23T12:10:38;99782.63;;;17.25;55.10
28344;BME280;15597;50.914;6.638;2023-03-23T12:18:40;99774.66;;;17.54;53.54
28344;BME280;15597;50.914;6.638;2023-03-23T12:24:16;99786.97;;;17.41;53.58
28344;BME280;15597;50.914;6.638;2023-03-23T12:29:39;99775.81;;;17.35;53.22
28344;BME280;15597;50.914;6.638;2023-03-23T12:35:11;99776.09;;;17.31;53.29
28344;BME280;15597;50.914;6.638;2023-03-23T12:38:00;99764.69;;;17.30;53.37
28344;BME280;15597;50.914;6.638;2023-03-23T12:43:58;99775.66;;;17.24;53.58
28344;BME280;15597;50.914;6.638;2023-03-23T12:46:40;99770.38;;;17.24;53.44
28344;BME280;15597;50.914;6.638;2023-03-23T12:52:10;99767.34;;;17.30;53.54
28344;BME280;15597;50.914;6.638;2023-03-23T12:57:56;99780.75;;;17.27;53.56
28344;BME280;15597;50.914;6.638;2023-03-23T13:00:33;99785.84;;;17.30;53.57
28344;BME280;15597;50.914;6.638;2023-03-23T13:03:08;99798.13;;;17.31;53.37
28344;BME280;15597;50.914;6.638;2023-03-23T13:05:42;99809.34;;;17.35;53.21
28344;BME280;15597;50.914;6.638;2023-03-23T13:08:23;99802.53;;;17.31;53.05
28344;BME280;15597;50.914;6.638;2023-03-23T13:10:57;99802.66;;;17.29;53.24
28344;BME280;15597;50.914;6.638;2023-03-23T13:13:41;99796.03;;;17.22;53.50
28344;BME280;15597;50.914;6.638;2023-03-23T13:16:19;99797.75;;;17.23;53.54
28344;BME280;15597;50.914;6.638;2023-03-23T13:18:56;99800.56;;;17.20;53.80
28344;BME280;15597;50.914;6.638;2023-03-23T13:21:32;99792.84;;;17.17;53.68
28344;BME280;15597;50.914;6.638;2023-03-23T13:24:03;99803.22;;;17.20;53.87
28344;BME280;15597;50.914;6.638;2023-03-23T13:26:31;99803.97;;;17.22;53.63
28344;BME280;15597;50.914;6.638;2023-03-23T13:29:05;99813.78;;;17.20;53.87
28344;BME280;15597;50.914;6.638;2023-03-23T13:31:36;99814.75;;;17.19;54.13
28344;BME280;15597;50.914;6.638;2023-03-23T13:34:15;99820.09;;;17.17;54.27
28344;BME280;15597;50.914;6.638;2023-03-23T13:36:44;99811.91;;;17.22;54.34
28344;BME280;15597;50.914;6.638;2023-03-23T13:44:38;99801.97;;;17.55;55.38
28344;BME280;15597;50.914;6.638;2023-03-23T13:47:08;99793.69;;;17.74;55.85
28344;BME280;15597;50.914;6.638;2023-03-23T13:49:45;99788.91;;;17.93;56.08
28344;BME280;15597;50.914;6.638;2023-03-23T13:55:21;99806.25;;;18.52;56.15
28344;BME280;15597;50.914;6.638;2023-03-23T14:03:24;99799.75;;;18.97;54.09
28344;BME280;15597;50.914;6.638;2023-03-23T14:11:00;99790.41;;;19.30;52.36
28344;BME280;15597;50.914;6.638;2023-03-23T14:16:22;99775.31;;;19.31;51.36
28344;BME280;15597;50.914;6.638;2023-03-23T14:18:59;99783.50;;;19.27;50.86
28344;BME280;15597;50.914;6.638;2023-03-23T14:21:34;99765.38;;;19.21;50.24
28344;BME280;15597;50.914;6.638;2023-03-23T14:24:08;99764.75;;;19.18;50.14
28344;BME280;15597;50.914;6.638;2023-03-23T14:26:35;99771.97;;;19.16;49.67
28344;BME280;15597;50.914;6.638;2023-03-23T14:29:01;99773.44;;;19.07;49.51
28344;BME280;15597;50.914;6.638;2023-03-23T14:31:28;99764.72;;;18.92;49.77
28344;BME280;15597;50.914;6.638;2023-03-23T14:33:55;99781.91;;;18.73;50.04
28344;BME280;15597;50.914;6.638;2023-03-23T14:36:24;99774.72;;;18.62;49.68
28344;BME280;15597;50.914;6.638;2023-03-23T14:39:15;99791.00;;;18.43;50.15
28344;BME280;15597;50.914;6.638;2023-03-23T14:41:42;99787.81;;;18.38;50.63
28344;BME280;15597;50.914;6.638;2023-03-23T14:44:19;99784.81;;;18.30;50.65
28344;BME280;15597;50.914;6.638;2023-03-23T14:46:47;99784.06;;;18.28;50.74
28344;BME280;15597;50.914;6.638;2023-03-23T14:49:16;99788.84;;;18.22;51.03
28344;BME280;15597;50.914;6.638;2023-03-23T14:51:51;99777.59;;;18.19;50.93
28344;BME280;15597;50.914;6.638;2023-03-23T14:54:26;99783.75;;;18.19;51.03
28344;BME280;15597;50.914;6.638;2023-03-23T14:56:53;99771.25;;;18.21;50.94
28344;BME280;15597;50.914;6.638;2023-03-23T14:59:19;99774.84;;;18.20;51.19
28344;BME280;15597;50.914;6.638;2023-03-23T15:01:47;99765.28;;;18.18;51.23
28344;BME280;15597;50.914;6.638;2023-03-23T15:04:20;99750.88;;;18.09;51.59